Time;durP1;ratioP1;P1;durP2;ratioP2;P2;SDS_P1;SDS_P2;PMS_P1;PMS_P2;Temp;Humidity;BMP_temperature;BMP_pressure;BME280_temperature;BME280_humidity;BME280_pressure;Samples;Min_cycle;Max_cycle;Signal;HPM_P1;HPM_P2
2023/05/14 00:00:40;;;;;;;14.60;11.68;;;;;;;;;;5048219;28;20467;-75
2023/05/14 00:03:06;;;;;;;13.93;11.38;;;;;;;;;;5047229;28;20052;-75
2023/05/14 00:05:32;;;;;;;14.50;11.05;;;;;;;;;;5045051;28;20044;-75
2023/05/14 00:07:58;;;;;;;14.25;11.23;;;;;;;;;;5047338;28;20044;-75
2023/05/14 00:10:25;;;;;;;15.05;11.80;;;;;;;;;;5034506;28;20052;-75
2023/05/14 00:12:51;;;;;;;14.50;11.15;;;;;;;;;;5030585;28;20057;-74
2023/05/14 00:15:17;;;;;;;14.05;10.80;;;;;;;;;;5046017;28;20048;-75
2023/05/14 00:17:43;;;;;;;15.45;10.52;;;;;;;;;;5043554;28;20041;-74
2023/05/14 00:20:11;;;;;;;14.57;10.52;;;;;;;;;;5049645;28;20071;-75
2023/05/14 00:22:37;;;;;;;13.13;10.40;;;;;;;;;;5038335;28;20049;-75
2023/05/14 00:25:03;;;;;;;14.43;10.23;;;;;;;;;;5045047;28;20051;-75
2023/05/14 00:27:29;;;;;;;12.57;10.18;;;;;;;;;;5032086;28;20048;-75
2023/05/14 00:29:55;;;;;;;14.43;10.40;;;;;;;;;;5033701;28;20061;-75
2023/05/14 00:32:21;;;;;;;11.23;8.80;;;;;;;;;;5031490;28;20053;-75
2023/05/14 00:34:47;;;;;;;12.20;9.68;;;;;;;;;;5038934;28;20042;-75
2023/05/14 00:37:13;;;;;;;11.00;9.82;;;;;;;;;;5048071;28;20049;-74
2023/05/14 00:39:39;;;;;;;15.60;11.35;;;;;;;;;;5039890;28;20047;-75
2023/05/14 00:42:05;;;;;;;15.02;12.48;;;;;;;;;;5034109;28;20114;-75
2023/05/14 00:44:31;;;;;;;17.65;13.05;;;;;;;;;;5048032;28;20142;-75
2023/05/14 00:46:58;;;;;;;17.52;14.10;;;;;;;;;;5037043;28;20116;-75
2023/05/14 00:49:24;;;;;;;16.45;11.95;;;;;;;;;;5031250;28;20405;-75
2023/05/14 00:51:51;;;;;;;14.60;10.77;;;;;;;;;;5029654;28;20064;-74
2023/05/14 00:54:17;;;;;;;13.38;10.02;;;;;;;;;;5037790;28;20049;-74
2023/05/14 00:56:45;;;;;;;13.40;9.63;;;;;;;;;;5034868;28;20114;-75
2023/05/14 00:59:11;;;;;;;13.00;10.05;;;;;;;;;;5035993;28;20081;-75
2023/05/14 01:01:37;;;;;;;11.98;10.18;;;;;;;;;;5053532;28;20460;-74
2023/05/14 01:04:04;;;;;;;14.00;10.70;;;;;;;;;;5039242;28;20049;-74
2023/05/14 01:06:53;;;;;;;14.88;10.32;;;;;;;;;;5049227;28;20045;-74
2023/05/14 01:09:26;;;;;;;15.82;11.07;;;;;;;;;;5038408;28;20053;-75
2023/05/14 01:12:04;;;;;;;14.32;10.05;;;;;;;;;;5034332;28;20041;-74
2023/05/14 01:14:49;;;;;;;17.70;10.30;;;;;;;;;;5032686;28;20484;-75
2023/05/14 01:17:18;;;;;;;16.38;10.73;;;;;;;;;;5036849;28;20045;-75
2023/05/14 01:19:46;;;;;;;17.42;10.73;;;;;;;;;;5032194;28;20045;-75
2023/05/14 01:22:12;;;;;;;14.30;11.02;;;;;;;;;;5033328;28;20052;-75
2023/05/14 01:24:38;;;;;;;15.10;11.48;;;;;;;;;;5052302;28;20048;-75
2023/05/14 01:27:25;;;;;;;15.02;12.07;;;;;;;;;;5053601;28;20059;-74
2023/05/14 01:30:10;;;;;;;16.63;12.35;;;;;;;;;;5026914;28;20067;-75
2023/05/14 01:32:36;;;;;;;16.15;12.88;;;;;;;;;;5047072;28;20055;-75
2023/05/14 01:35:02;;;;;;;18.20;14.18;;;;;;;;;;5045180;28;20037;-75
2023/05/14 01:37:29;;;;;;;21.77;15.02;;;;;;;;;;5044937;28;20051;-75
2023/05/14 01:39:56;;;;;;;18.05;13.80;;;;;;;;;;5034600;28;20040;-75
2023/05/14 01:42:22;;;;;;;17.90;13.63;;;;;;;;;;5033888;28;20120;-74
2023/05/14 01:44:48;;;;;;;19.42;14.10;;;;;;;;;;5032863;28;20041;-74
2023/05/14 01:47:15;;;;;;;17.55;13.88;;;;;;;;;;5048779;28;20048;-74
2023/05/14 01:49:41;;;;;;;19.35;12.88;;;;;;;;;;5049284;28;20108;-75
2023/05/14 01:52:07;;;;;;;15.60;11.48;;;;;;;;;;5034323;28;20087;-75
2023/05/14 01:54:33;;;;;;;17.88;11.65;;;;;;;;;;5046096;28;20055;-75
2023/05/14 01:56:59;;;;;;;16.10;10.68;;;;;;;;;;5031925;28;20042;-75
2023/05/14 01:59:25;;;;;;;14.43;11.00;;;;;;;;;;5048144;28;20056;-75
2023/05/14 02:01:51;;;;;;;15.50;11.07;;;;;;;;;;5049075;28;20041;-75
2023/05/14 02:04:19;;;;;;;16.52;11.70;;;;;;;;;;5039378;28;20046;-75
2023/05/14 02:06:45;;;;;;;16.38;10.65;;;;;;;;;;5033326;28;20061;-75
2023/05/14 02:09:11;;;;;;;16.25;11.30;;;;;;;;;;5036663;28;20408;-75
2023/05/14 02:11:37;;;;;;;15.45;10.23;;;;;;;;;;5053290;28;20053;-75
2023/05/14 02:14:03;;;;;;;13.88;9.55;;;;;;;;;;5032365;28;20047;-74
2023/05/14 02:16:29;;;;;;;14.60;11.05;;;;;;;;;;5043541;28;20045;-74
2023/05/14 02:18:55;;;;;;;15.38;11.05;;;;;;;;;;5051630;28;20075;-75
2023/05/14 02:21:24;;;;;;;16.23;10.20;;;;;;;;;;5036564;28;20045;-75
2023/05/14 02:23:54;;;;;;;16.13;10.52;;;;;;;;;;5032760;28;20061;-74
2023/05/14 02:26:21;;;;;;;13.80;10.57;;;;;;;;;;5031653;28;20056;-75
2023/05/14 02:28:47;;;;;;;11.95;9.48;;;;;;;;;;5039755;28;20120;-75
2023/05/14 02:31:13;;;;;;;11.25;8.82;;;;;;;;;;5030919;28;20115;-74
2023/05/14 02:33:39;;;;;;;11.77;8.55;;;;;;;;;;5032504;28;20041;-74
2023/05/14 02:36:05;;;;;;;11.52;8.05;;;;;;;;;;5032111;28;20053;-74
2023/05/14 02:38:31;;;;;;;12.13;8.73;;;;;;;;;;5031962;28;20081;-74
2023/05/14 02:40:57;;;;;;;11.00;8.02;;;;;;;;;;5030857;28;20095;-74
2023/05/14 02:43:23;;;;;;;13.38;8.30;;;;;;;;;;5031703;28;20469;-74
2023/05/14 02:45:49;;;;;;;12.27;8.50;;;;;;;;;;5052997;28;20131;-74
2023/05/14 02:48:15;;;;;;;14.48;8.15;;;;;;;;;;5034003;28;20048;-74
2023/05/14 02:50:41;;;;;;;13.60;7.97;;;;;;;;;;5039704;28;20077;-74
2023/05/14 02:53:07;;;;;;;13.73;9.18;;;;;;;;;;5032536;28;20096;-74
2023/05/14 02:55:33;;;;;;;9.93;7.57;;;;;;;;;;5031932;28;20045;-74
2023/05/14 02:57:59;;;;;;;13.70;8.27;;;;;;;;;;5030666;28;20481;-74
2023/05/14 03:00:25;;;;;;;13.80;7.90;;;;;;;;;;5033939;28;20084;-74
2023/05/14 03:02:51;;;;;;;11.27;7.95;;;;;;;;;;5032586;28;20042;-74
2023/05/14 03:05:17;;;;;;;11.60;8.40;;;;;;;;;;5029925;28;20501;-74
2023/05/14 03:07:43;;;;;;;13.48;8.15;;;;;;;;;;5036868;28;20118;-74
2023/05/14 03:10:10;;;;;;;12.70;8.50;;;;;;;;;;5032826;28;20042;-74
2023/05/14 03:12:36;;;;;;;16.58;8.85;;;;;;;;;;5036558;28;20049;-74
2023/05/14 03:15:02;;;;;;;11.85;8.57;;;;;;;;;;5051610;28;20135;-74
2023/05/14 03:17:28;;;;;;;12.95;9.18;;;;;;;;;;5042138;28;20089;-74
2023/05/14 03:19:54;;;;;;;11.65;7.80;;;;;;;;;;5045716;28;20498;-74
2023/05/14 03:22:20;;;;;;;12.60;7.20;;;;;;;;;;5050524;28;20187;-74
2023/05/14 03:24:46;;;;;;;12.55;7.88;;;;;;;;;;5034383;28;20053;-74
2023/05/14 03:27:12;;;;;;;12.60;7.40;;;;;;;;;;5031060;28;20043;-74
2023/05/14 03:29:38;;;;;;;17.52;9.35;;;;;;;;;;5033929;28;20457;-74
2023/05/14 03:32:04;;;;;;;18.45;10.15;;;;;;;;;;5045332;28;20566;-74
2023/05/14 03:34:30;;;;;;;17.65;9.90;;;;;;;;;;5048288;28;20053;-74
2023/05/14 03:36:56;;;;;;;16.75;10.25;;;;;;;;;;5038206;28;20100;-74
2023/05/14 03:39:22;;;;;;;12.85;10.10;;;;;;;;;;5031514;28;20049;-74
2023/05/14 03:41:48;;;;;;;15.10;10.30;;;;;;;;;;5030262;28;20077;-74
2023/05/14 03:44:15;;;;;;;16.52;8.68;;;;;;;;;;5032143;28;20057;-74
2023/05/14 03:46:41;;;;;;;18.27;8.45;;;;;;;;;;5035235;28;20562;-74
2023/05/14 03:49:07;;;;;;;14.05;8.02;;;;;;;;;;5050355;28;20128;-74
2023/05/14 03:51:33;;;;;;;17.05;9.43;;;;;;;;;;5035316;28;20045;-74
2023/05/14 03:53:59;;;;;;;13.73;9.57;;;;;;;;;;5029225;28;20129;-73
2023/05/14 03:56:25;;;;;;;9.65;8.18;;;;;;;;;;5036256;28;20069;-74
2023/05/14 03:58:52;;;;;;;17.40;8.07;;;;;;;;;;5038776;28;20119;-74
2023/05/14 04:01:18;;;;;;;9.52;6.78;;;;;;;;;;5042517;28;20049;-73
2023/05/14 04:03:44;;;;;;;10.73;7.45;;;;;;;;;;5047822;28;20058;-73
2023/05/14 04:06:10;;;;;;;14.93;7.30;;;;;;;;;;5038322;28;20052;-74
2023/05/14 04:08:36;;;;;;;12.20;7.32;;;;;;;;;;5031407;28;20046;-74
2023/05/14 04:11:02;;;;;;;17.88;8.23;;;;;;;;;;5033784;28;20087;-74
2023/05/14 04:13:28;;;;;;;11.65;8.40;;;;;;;;;;5041622;28;20045;-73
2023/05/14 04:15:54;;;;;;;17.75;8.57;;;;;;;;;;5029567;28;20068;-73
2023/05/14 04:18:20;;;;;;;12.80;7.75;;;;;;;;;;5029739;28;20449;-74
2023/05/14 04:20:46;;;;;;;16.52;7.72;;;;;;;;;;5029971;28;20442;-74
2023/05/14 04:23:12;;;;;;;9.77;7.18;;;;;;;;;;5031552;28;20091;-74
2023/05/14 04:25:39;;;;;;;12.45;7.05;;;;;;;;;;5031499;28;20045;-74
2023/05/14 04:28:05;;;;;;;13.65;7.45;;;;;;;;;;5045383;28;20191;-74
2023/05/14 04:30:31;;;;;;;12.65;7.75;;;;;;;;;;5035110;28;20056;-74
2023/05/14 04:32:57;;;;;;;14.35;7.82;;;;;;;;;;5034984;28;20033;-74
2023/05/14 04:35:23;;;;;;;12.43;7.25;;;;;;;;;;5034197;28;20057;-73
2023/05/14 04:37:49;;;;;;;13.60;7.25;;;;;;;;;;5034085;28;20464;-76
2023/05/14 04:40:15;;;;;;;11.82;7.32;;;;;;;;;;5052437;28;20045;-74
2023/05/14 04:42:42;;;;;;;11.98;7.45;;;;;;;;;;5033821;28;20123;-74
2023/05/14 04:45:09;;;;;;;12.45;7.32;;;;;;;;;;5050942;28;20099;-73
2023/05/14 04:47:35;;;;;;;11.50;7.13;;;;;;;;;;5035013;28;20057;-73
2023/05/14 04:50:01;;;;;;;13.38;6.57;;;;;;;;;;5033762;28;20389;-73
2023/05/14 04:52:27;;;;;;;12.52;6.38;;;;;;;;;;5032716;28;20056;-73
2023/05/14 04:54:53;;;;;;;13.38;6.95;;;;;;;;;;5036748;28;20049;-74
2023/05/14 04:57:19;;;;;;;11.20;6.82;;;;;;;;;;5053116;28;20059;-74
2023/05/14 04:59:46;;;;;;;11.57;6.53;;;;;;;;;;5046240;28;20102;-74
2023/05/14 05:02:12;;;;;;;10.90;5.88;;;;;;;;;;5034992;28;20773;-74
2023/05/14 05:04:38;;;;;;;12.45;6.03;;;;;;;;;;5037544;28;20072;-74
2023/05/14 05:07:04;;;;;;;9.00;6.20;;;;;;;;;;5048205;28;20442;-74
2023/05/14 05:09:31;;;;;;;10.93;6.10;;;;;;;;;;5052882;28;20048;-74
2023/05/14 05:11:57;;;;;;;9.18;5.95;;;;;;;;;;5047890;28;20075;-74
2023/05/14 05:14:23;;;;;;;11.90;5.85;;;;;;;;;;5034389;28;20049;-74
2023/05/14 05:16:50;;;;;;;11.75;6.25;;;;;;;;;;5037835;28;20481;-74
2023/05/14 05:19:16;;;;;;;11.10;6.63;;;;;;;;;;5047410;28;20496;-74
2023/05/14 05:21:42;;;;;;;10.63;5.35;;;;;;;;;;5049626;28;20045;-74
2023/05/14 05:24:08;;;;;;;9.45;5.70;;;;;;;;;;5038092;28;20425;-74
2023/05/14 05:26:37;;;;;;;10.50;6.00;;;;;;;;;;5053479;28;20049;-74
2023/05/14 05:29:04;;;;;;;11.77;6.30;;;;;;;;;;5049217;28;20048;-74
2023/05/14 05:31:30;;;;;;;10.90;5.80;;;;;;;;;;5047407;28;20050;-74
2023/05/14 05:33:57;;;;;;;12.68;5.38;;;;;;;;;;5033479;28;20146;-74
2023/05/14 05:36:23;;;;;;;14.90;5.85;;;;;;;;;;5042260;28;20049;-74
2023/05/14 05:38:49;;;;;;;12.73;5.88;;;;;;;;;;5049664;28;20503;-74
2023/05/14 05:41:15;;;;;;;11.88;5.88;;;;;;;;;;5045486;28;20060;-74
2023/05/14 05:43:41;;;;;;;10.60;4.90;;;;;;;;;;5036505;28;20049;-74
2023/05/14 05:46:07;;;;;;;12.43;5.60;;;;;;;;;;5045683;28;20084;-74
2023/05/14 05:48:33;;;;;;;12.82;5.45;;;;;;;;;;5047393;28;20135;-74
2023/05/14 05:50:59;;;;;;;11.85;5.68;;;;;;;;;;5033944;28;20049;-74
2023/05/14 05:53:25;;;;;;;12.63;5.75;;;;;;;;;;5033521;28;20048;-74
2023/05/14 05:55:51;;;;;;;11.52;5.28;;;;;;;;;;5033905;28;20049;-74
2023/05/14 05:58:18;;;;;;;10.35;5.25;;;;;;;;;;5039797;28;20133;-74
2023/05/14 06:00:45;;;;;;;11.13;5.32;;;;;;;;;;5052098;28;20049;-74
2023/05/14 06:03:11;;;;;;;10.63;5.40;;;;;;;;;;5040781;28;20048;-74
2023/05/14 06:05:37;;;;;;;11.38;5.97;;;;;;;;;;5045653;28;21498;-74
2023/05/14 06:08:03;;;;;;;10.00;5.65;;;;;;;;;;5036501;28;20041;-74
2023/05/14 06:10:30;;;;;;;11.23;5.82;;;;;;;;;;5033549;28;20084;-74
2023/05/14 06:12:55;;;;;;;8.82;5.65;;;;;;;;;;5033248;28;20045;-74
2023/05/14 06:15:22;;;;;;;15.27;5.95;;;;;;;;;;5030155;28;20083;-74
2023/05/14 06:17:48;;;;;;;11.27;6.25;;;;;;;;;;5039155;28;20041;-74
2023/05/14 06:20:14;;;;;;;12.30;6.72;;;;;;;;;;5053514;28;20044;-74
2023/05/14 06:22:40;;;;;;;12.05;5.80;;;;;;;;;;5044090;28;20041;-74
2023/05/14 06:25:06;;;;;;;13.15;7.53;;;;;;;;;;5052116;28;20477;-74
2023/05/14 06:27:32;;;;;;;9.88;6.35;;;;;;;;;;5039412;28;20045;-74
2023/05/14 06:29:58;;;;;;;10.55;6.07;;;;;;;;;;5034544;28;20499;-74
2023/05/14 06:32:24;;;;;;;11.48;5.93;;;;;;;;;;5049696;28;20041;-74
2023/05/14 06:34:50;;;;;;;11.30;6.72;;;;;;;;;;5030793;28;20048;-74
2023/05/14 06:37:16;;;;;;;12.35;6.38;;;;;;;;;;5032952;28;20134;-74
2023/05/14 06:39:48;;;;;;;11.70;6.85;;;;;;;;;;5032191;28;20110;-74
2023/05/14 06:42:15;;;;;;;11.82;6.30;;;;;;;;;;5031894;28;20122;-74
2023/05/14 06:44:41;;;;;;;11.70;6.78;;;;;;;;;;5033909;28;20377;-74
2023/05/14 06:47:07;;;;;;;11.95;6.20;;;;;;;;;;5051508;28;20056;-74
2023/05/14 06:49:33;;;;;;;14.43;6.30;;;;;;;;;;5043718;28;20080;-74
2023/05/14 06:52:00;;;;;;;9.38;5.60;;;;;;;;;;5032943;28;20400;-74
2023/05/14 06:54:26;;;;;;;12.65;6.30;;;;;;;;;;5031946;28;20044;-74
2023/05/14 06:56:52;;;;;;;11.25;6.65;;;;;;;;;;5039073;28;20045;-74
2023/05/14 06:59:18;;;;;;;10.63;6.35;;;;;;;;;;5051399;28;20041;-74
2023/05/14 07:01:44;;;;;;;14.07;6.45;;;;;;;;;;5039876;28;20045;-75
2023/05/14 07:04:10;;;;;;;13.25;6.28;;;;;;;;;;5050598;28;20047;-74
2023/05/14 07:06:36;;;;;;;11.70;6.32;;;;;;;;;;5049130;28;20056;-75
2023/05/14 07:09:02;;;;;;;12.85;6.10;;;;;;;;;;5032200;28;20051;-74
2023/05/14 07:11:28;;;;;;;11.32;5.53;;;;;;;;;;5030141;28;20100;-74
2023/05/14 07:13:54;;;;;;;12.07;5.72;;;;;;;;;;5035968;28;20135;-74
2023/05/14 07:16:20;;;;;;;9.02;5.30;;;;;;;;;;5050690;28;20056;-75
2023/05/14 07:18:46;;;;;;;11.88;5.63;;;;;;;;;;5034855;28;20044;-74
2023/05/14 07:21:12;;;;;;;9.68;5.95;;;;;;;;;;5049061;28;20041;-75
2023/05/14 07:23:38;;;;;;;14.60;6.25;;;;;;;;;;5041732;28;20072;-74
2023/05/14 07:26:05;;;;;;;12.75;6.10;;;;;;;;;;5029418;28;20100;-74
2023/05/14 07:28:31;;;;;;;11.43;5.82;;;;;;;;;;5030835;28;20481;-74
2023/05/14 07:30:58;;;;;;;11.45;5.22;;;;;;;;;;5032032;28;20404;-74
2023/05/14 07:33:24;;;;;;;11.07;6.25;;;;;;;;;;5030048;28;20133;-74
2023/05/14 07:35:50;;;;;;;10.43;5.72;;;;;;;;;;5031938;28;20606;-73
2023/05/14 07:38:17;;;;;;;10.57;6.05;;;;;;;;;;5043359;28;20496;-73
2023/05/14 07:40:43;;;;;;;10.85;6.57;;;;;;;;;;5037109;28;20130;-74
2023/05/14 07:43:09;;;;;;;8.48;5.85;;;;;;;;;;5031645;28;20044;-74
2023/05/14 07:45:36;;;;;;;11.13;6.20;;;;;;;;;;5028954;28;20400;-74
2023/05/14 07:48:02;;;;;;;12.77;6.05;;;;;;;;;;5031069;28;20401;-74
2023/05/14 07:50:28;;;;;;;12.65;6.15;;;;;;;;;;5036726;28;20077;-74
2023/05/14 07:52:54;;;;;;;12.43;5.72;;;;;;;;;;5029602;28;20499;-73
2023/05/14 07:55:20;;;;;;;13.23;6.45;;;;;;;;;;5031601;28;20053;-73
2023/05/14 07:57:46;;;;;;;14.60;6.35;;;;;;;;;;5030333;28;20227;-74
2023/05/14 08:00:12;;;;;;;8.63;5.53;;;;;;;;;;5034826;28;20142;-74
2023/05/14 08:02:38;;;;;;;11.77;5.85;;;;;;;;;;5045936;28;20106;-74
2023/05/14 08:05:05;;;;;;;9.70;5.65;;;;;;;;;;5048178;28;20057;-74
2023/05/14 08:07:32;;;;;;;9.95;5.70;;;;;;;;;;5035524;28;20041;-74
2023/05/14 08:09:58;;;;;;;10.57;5.75;;;;;;;;;;5044231;28;20439;-74
2023/05/14 08:12:25;;;;;;;10.02;6.32;;;;;;;;;;5043648;28;20049;-74
2023/05/14 08:14:51;;;;;;;12.55;6.20;;;;;;;;;;5047199;28;20056;-74
2023/05/14 08:17:17;;;;;;;11.25;5.93;;;;;;;;;;5048169;28;20049;-74
2023/05/14 08:19:43;;;;;;;11.88;6.22;;;;;;;;;;5047419;28;20076;-74
2023/05/14 08:22:09;;;;;;;9.95;6.40;;;;;;;;;;5033601;28;20080;-74
2023/05/14 08:24:36;;;;;;;12.05;6.55;;;;;;;;;;5034045;28;20853;-74
2023/05/14 08:27:02;;;;;;;12.30;6.00;;;;;;;;;;5033461;28;20061;-74
2023/05/14 08:29:28;;;;;;;10.70;5.80;;;;;;;;;;5038403;28;20037;-75
2023/05/14 08:31:54;;;;;;;10.45;6.05;;;;;;;;;;5050487;28;20087;-75
2023/05/14 08:34:20;;;;;;;12.43;6.43;;;;;;;;;;5044619;28;20099;-75
2023/05/14 08:36:46;;;;;;;13.90;7.15;;;;;;;;;;5048686;28;20053;-75
2023/05/14 08:39:12;;;;;;;10.38;6.35;;;;;;;;;;5047960;28;20550;-78
2023/05/14 08:41:39;;;;;;;13.70;6.80;;;;;;;;;;5053275;28;20048;-74
2023/05/14 08:44:08;;;;;;;9.75;6.70;;;;;;;;;;5039048;28;20135;-75
2023/05/14 08:46:35;;;;;;;13.85;7.00;;;;;;;;;;5053477;28;20049;-76
2023/05/14 08:49:10;;;;;;;14.52;6.35;;;;;;;;;;5036606;28;20049;-76
2023/05/14 08:51:36;;;;;;;10.45;7.07;;;;;;;;;;5033767;28;20053;-76
2023/05/14 08:54:02;;;;;;;11.50;6.68;;;;;;;;;;5036943;28;20048;-76
2023/05/14 08:56:31;;;;;;;12.45;6.53;;;;;;;;;;5044330;28;20381;-75
2023/05/14 08:58:58;;;;;;;11.88;6.82;;;;;;;;;;5052035;28;20057;-75
2023/05/14 09:01:25;;;;;;;9.10;6.45;;;;;;;;;;5046103;28;20072;-75
2023/05/14 09:03:52;;;;;;;9.48;6.47;;;;;;;;;;5047659;28;20037;-75
2023/05/14 09:06:18;;;;;;;10.10;6.57;;;;;;;;;;5033687;28;20042;-75
2023/05/14 09:08:45;;;;;;;11.35;6.15;;;;;;;;;;5053194;28;20051;-75
2023/05/14 09:11:11;;;;;;;10.15;6.10;;;;;;;;;;5047447;28;20053;-76
2023/05/14 09:13:38;;;;;;;9.43;6.15;;;;;;;;;;5039488;28;20049;-76
2023/05/14 09:16:04;;;;;;;9.50;6.45;;;;;;;;;;5052074;28;20041;-75
2023/05/14 09:18:30;;;;;;;9.60;5.80;;;;;;;;;;5039702;28;20049;-75
2023/05/14 09:20:57;;;;;;;8.45;6.13;;;;;;;;;;5051395;28;20041;-74
2023/05/14 09:23:25;;;;;;;9.82;6.00;;;;;;;;;;5032297;28;20041;-74
2023/05/14 09:25:51;;;;;;;12.32;5.90;;;;;;;;;;5051505;28;20489;-75
2023/05/14 09:28:20;;;;;;;8.55;5.88;;;;;;;;;;5044796;28;20053;-75
2023/05/14 09:30:52;;;;;;;11.23;6.07;;;;;;;;;;5041659;28;20064;-74
2023/05/14 09:33:27;;;;;;;10.43;5.68;;;;;;;;;;5036328;28;20048;-74
2023/05/14 09:36:00;;;;;;;14.77;6.50;;;;;;;;;;5050070;28;20484;-74
2023/05/14 09:38:29;;;;;;;13.20;6.50;;;;;;;;;;5039820;28;20041;-74
2023/05/14 09:40:56;;;;;;;7.40;6.15;;;;;;;;;;5033382;28;20311;-75
2023/05/14 09:43:22;;;;;;;13.27;6.20;;;;;;;;;;5029924;28;20048;-75
2023/05/14 09:45:48;;;;;;;14.25;5.93;;;;;;;;;;5032111;28;20080;-75
2023/05/14 09:48:14;;;;;;;11.68;6.72;;;;;;;;;;5041589;28;20099;-76
2023/05/14 09:50:44;;;;;;;10.50;7.15;;;;;;;;;;5043461;28;20366;-75
2023/05/14 09:53:10;;;;;;;12.35;6.53;;;;;;;;;;5037691;28;20064;-75
2023/05/14 09:55:37;;;;;;;11.13;6.65;;;;;;;;;;5031236;28;20049;-75
2023/05/14 09:58:04;;;;;;;13.95;7.38;;;;;;;;;;4995786;28;1069647;-75
2023/05/14 10:00:33;;;;;;;11.23;7.43;;;;;;;;;;5031131;28;20057;-73
2023/05/14 10:03:04;;;;;;;11.82;7.45;;;;;;;;;;5033352;28;20366;-75
2023/05/14 10:05:31;;;;;;;8.57;6.45;;;;;;;;;;5032808;28;20493;-75
2023/05/14 10:07:58;;;;;;;10.85;6.50;;;;;;;;;;5034146;28;20049;-75
2023/05/14 10:10:29;;;;;;;15.18;7.07;;;;;;;;;;5035160;28;20272;-75
2023/05/14 10:12:59;;;;;;;13.10;7.32;;;;;;;;;;5033234;28;20497;-75
2023/05/14 10:15:29;;;;;;;8.35;6.35;;;;;;;;;;5030499;28;20045;-75
2023/05/14 10:17:56;;;;;;;9.93;7.60;;;;;;;;;;5031416;28;20049;-75
2023/05/14 10:20:22;;;;;;;11.75;7.05;;;;;;;;;;5030579;28;20053;-75
2023/05/14 10:22:50;;;;;;;9.65;7.15;;;;;;;;;;5040198;28;20507;-75
2023/05/14 10:25:16;;;;;;;12.68;7.20;;;;;;;;;;5031095;28;20049;-74
2023/05/14 10:27:42;;;;;;;11.23;6.95;;;;;;;;;;5036257;28;20056;-75
2023/05/14 10:30:11;;;;;;;12.18;7.90;;;;;;;;;;5040524;28;20152;-75
2023/05/14 10:32:38;;;;;;;10.70;7.13;;;;;;;;;;5040907;28;20041;-76
2023/05/14 10:35:15;;;;;;;15.02;8.00;;;;;;;;;;5035966;28;20124;-76
2023/05/14 10:37:41;;;;;;;13.57;7.60;;;;;;;;;;5039006;28;20086;-76
2023/05/14 10:40:08;;;;;;;11.90;7.50;;;;;;;;;;5044182;28;20512;-77
2023/05/14 10:42:38;;;;;;;14.40;7.45;;;;;;;;;;5030472;28;20516;-76
2023/05/14 10:45:07;;;;;;;10.80;7.28;;;;;;;;;;5032614;28;20049;-76
2023/05/14 10:47:33;;;;;;;11.30;7.18;;;;;;;;;;5034942;28;20413;-75
2023/05/14 10:50:00;;;;;;;11.60;7.82;;;;;;;;;;5037351;28;20384;-76
2023/05/14 10:52:26;;;;;;;14.60;8.43;;;;;;;;;;5032071;28;20610;-76
2023/05/14 10:54:53;;;;;;;10.82;7.60;;;;;;;;;;5031455;28;20052;-76
2023/05/14 10:57:20;;;;;;;14.55;8.20;;;;;;;;;;5041718;28;20064;-76
2023/05/14 10:59:47;;;;;;;12.10;8.27;;;;;;;;;;5035197;28;20047;-76
2023/05/14 11:02:21;;;;;;;12.55;8.32;;;;;;;;;;5041815;28;20045;-76
2023/05/14 11:04:52;;;;;;;9.02;7.70;;;;;;;;;;5031412;28;20102;-75
2023/05/14 11:07:23;;;;;;;11.35;8.00;;;;;;;;;;5035411;28;20049;-76
2023/05/14 11:09:50;;;;;;;12.68;8.02;;;;;;;;;;5039521;28;20042;-76
2023/05/14 11:12:18;;;;;;;16.13;8.82;;;;;;;;;;5029630;28;20049;-76
2023/05/14 11:14:44;;;;;;;11.52;9.48;;;;;;;;;;5034167;28;20044;-76
2023/05/14 11:17:11;;;;;;;16.33;9.43;;;;;;;;;;5036388;28;20052;-76
2023/05/14 11:19:37;;;;;;;11.95;8.63;;;;;;;;;;5042694;28;20073;-74
2023/05/14 11:22:03;;;;;;;14.15;10.30;;;;;;;;;;5035597;28;20073;-73
2023/05/14 11:24:29;;;;;;;13.00;9.90;;;;;;;;;;5031411;28;20484;-74
2023/05/14 11:26:55;;;;;;;12.38;9.93;;;;;;;;;;5038479;28;20049;-73
2023/05/14 11:29:21;;;;;;;14.35;10.05;;;;;;;;;;5041960;28;20099;-74
2023/05/14 11:31:47;;;;;;;14.15;10.32;;;;;;;;;;5047264;28;20073;-74
2023/05/14 11:34:13;;;;;;;13.65;10.80;;;;;;;;;;5041152;28;20037;-74
2023/05/14 11:36:41;;;;;;;12.88;9.65;;;;;;;;;;5050739;28;20055;-73
2023/05/14 11:39:07;;;;;;;11.57;9.65;;;;;;;;;;5036713;28;20045;-74
2023/05/14 11:41:33;;;;;;;15.25;10.50;;;;;;;;;;5031748;28;20085;-74
2023/05/14 11:43:59;;;;;;;12.93;9.90;;;;;;;;;;5035076;28;20122;-74
2023/05/14 11:46:25;;;;;;;14.63;9.88;;;;;;;;;;5050342;28;20045;-74
2023/05/14 11:48:51;;;;;;;13.55;10.02;;;;;;;;;;5043066;28;20095;-74
2023/05/14 11:51:17;;;;;;;13.43;9.25;;;;;;;;;;5048085;28;20072;-74
2023/05/14 11:53:45;;;;;;;12.88;9.35;;;;;;;;;;5034541;28;20046;-74
2023/05/14 11:56:11;;;;;;;10.73;8.93;;;;;;;;;;5030387;28;20536;-74
2023/05/14 11:58:37;;;;;;;16.45;9.80;;;;;;;;;;5031292;28;20118;-74
2023/05/14 12:01:04;;;;;;;13.07;8.98;;;;;;;;;;5032161;28;20050;-74
2023/05/14 12:03:30;;;;;;;12.23;8.88;;;;;;;;;;5030522;28;20139;-74
2023/05/14 12:06:00;;;;;;;11.88;8.20;;;;;;;;;;5031942;28;20049;-74
2023/05/14 12:08:27;;;;;;;15.82;9.90;;;;;;;;;;5032031;28;20212;-73
2023/05/14 12:10:53;;;;;;;12.45;9.32;;;;;;;;;;5031518;28;20482;-73
2023/05/14 12:13:20;;;;;;;11.23;8.65;;;;;;;;;;5029891;28;20087;-74
2023/05/14 12:15:47;;;;;;;12.55;9.23;;;;;;;;;;5036600;28;20136;-74
2023/05/14 12:18:13;;;;;;;11.82;8.90;;;;;;;;;;5031000;28;20048;-74
2023/05/14 12:20:40;;;;;;;10.68;9.57;;;;;;;;;;5032953;28;20400;-73
2023/05/14 12:23:09;;;;;;;12.65;10.05;;;;;;;;;;5038326;28;20136;-74
2023/05/14 12:25:38;;;;;;;10.93;9.60;;;;;;;;;;5028837;28;20404;-77
2023/05/14 12:28:17;;;;;;;11.45;9.48;;;;;;;;;;5036224;28;20569;-74
2023/05/14 12:30:43;;;;;;;11.88;9.82;;;;;;;;;;5037361;28;20396;-75
2023/05/14 12:33:09;;;;;;;15.38;9.57;;;;;;;;;;5030857;28;20046;-75
2023/05/14 12:35:36;;;;;;;12.55;9.50;;;;;;;;;;5040325;28;20139;-75
2023/05/14 12:38:02;;;;;;;13.77;9.68;;;;;;;;;;5035269;28;20042;-74
2023/05/14 12:40:28;;;;;;;12.45;9.52;;;;;;;;;;5029256;28;20053;-74
2023/05/14 12:42:54;;;;;;;14.10;10.27;;;;;;;;;;5029639;28;20362;-74
2023/05/14 12:45:20;;;;;;;13.63;9.35;;;;;;;;;;5030698;28;20051;-75
2023/05/14 12:47:46;;;;;;;13.10;9.50;;;;;;;;;;5041723;28;20171;-74
2023/05/14 12:50:12;;;;;;;13.23;10.73;;;;;;;;;;5051472;28;20124;-74
2023/05/14 12:52:38;;;;;;;12.13;10.30;;;;;;;;;;5052027;28;20123;-75
2023/05/14 12:55:05;;;;;;;15.00;11.18;;;;;;;;;;5037960;28;20470;-75
2023/05/14 12:57:31;;;;;;;14.10;11.25;;;;;;;;;;5043615;28;20094;-74
2023/05/14 12:59:57;;;;;;;11.13;9.93;;;;;;;;;;5037873;28;20049;-75
2023/05/14 13:02:23;;;;;;;13.35;9.43;;;;;;;;;;5033188;28;20051;-74
2023/05/14 13:04:49;;;;;;;15.25;9.40;;;;;;;;;;5032938;28;20128;-75
2023/05/14 13:07:15;;;;;;;12.90;10.20;;;;;;;;;;5040699;28;20128;-74
2023/05/14 13:09:41;;;;;;;11.30;8.90;;;;;;;;;;5032642;28;20044;-74
2023/05/14 13:12:08;;;;;;;12.55;9.63;;;;;;;;;;5033915;28;20045;-75
2023/05/14 13:14:35;;;;;;;12.80;9.38;;;;;;;;;;5038524;28;20064;-74
2023/05/14 13:17:01;;;;;;;11.65;9.13;;;;;;;;;;5032048;28;20077;-75
2023/05/14 13:19:27;;;;;;;14.93;9.07;;;;;;;;;;5031577;28;20138;-75
2023/05/14 13:21:53;;;;;;;11.70;9.60;;;;;;;;;;5032493;28;20042;-74
2023/05/14 13:24:19;;;;;;;11.55;9.27;;;;;;;;;;5041965;28;20156;-74
2023/05/14 13:26:45;;;;;;;12.85;9.38;;;;;;;;;;5037369;28;20128;-74
2023/05/14 13:29:11;;;;;;;11.35;9.07;;;;;;;;;;5042351;28;20121;-75
2023/05/14 13:31:37;;;;;;;12.38;9.38;;;;;;;;;;5035339;28;20056;-75
2023/05/14 13:34:03;;;;;;;13.07;9.35;;;;;;;;;;5044058;28;20049;-74
2023/05/14 13:36:31;;;;;;;11.30;9.77;;;;;;;;;;5052466;28;20392;-74
2023/05/14 13:38:57;;;;;;;11.95;9.45;;;;;;;;;;5049690;28;20041;-75
2023/05/14 13:41:23;;;;;;;10.45;8.38;;;;;;;;;;5036259;28;20049;-74
2023/05/14 13:43:49;;;;;;;10.52;8.48;;;;;;;;;;5033019;28;20148;-74
2023/05/14 13:46:15;;;;;;;11.50;8.82;;;;;;;;;;5033416;28;20140;-74
2023/05/14 13:48:41;;;;;;;12.32;8.40;;;;;;;;;;5036222;28;20056;-74
2023/05/14 13:51:07;;;;;;;9.65;8.13;;;;;;;;;;5042745;28;20048;-74
2023/05/14 13:53:33;;;;;;;11.27;8.50;;;;;;;;;;5032293;28;20099;-75
2023/05/14 13:56:00;;;;;;;11.07;8.15;;;;;;;;;;5032902;28;20049;-74
2023/05/14 13:58:27;;;;;;;9.95;8.88;;;;;;;;;;5033452;28;20463;-75
2023/05/14 14:00:53;;;;;;;11.48;8.50;;;;;;;;;;5032702;28;20059;-75
2023/05/14 14:03:19;;;;;;;9.52;8.52;;;;;;;;;;5030466;28;20053;-74
2023/05/14 14:05:45;;;;;;;12.52;7.93;;;;;;;;;;5046197;28;20056;-74
2023/05/14 14:08:11;;;;;;;12.30;8.25;;;;;;;;;;5039011;28;20069;-75
2023/05/14 14:10:39;;;;;;;9.18;7.47;;;;;;;;;;5038350;28;20042;-75
2023/05/14 14:13:06;;;;;;;15.85;7.28;;;;;;;;;;5036255;28;20465;-74
2023/05/14 14:15:32;;;;;;;9.05;7.47;;;;;;;;;;5034631;28;20382;-74
2023/05/14 14:17:58;;;;;;;11.38;6.80;;;;;;;;;;5036500;28;20087;-74
2023/05/14 14:20:24;;;;;;;9.63;6.90;;;;;;;;;;5034210;28;20400;-74
2023/05/14 14:22:50;;;;;;;8.48;6.63;;;;;;;;;;5036438;28;20041;-74
2023/05/14 14:25:16;;;;;;;7.47;6.68;;;;;;;;;;5030790;28;20043;-74